Time;durP1;ratioP1;P1;durP2;ratioP2;P2;SDS_P1;SDS_P2;PMS_P1;PMS_P2;Temp;Humidity;BMP_temperature;BMP_pressure;BME280_temperature;BME280_humidity;BME280_pressure;Samples;Min_cycle;Max_cycle;Signal;HPM_P1;HPM_P2
2022/07/09 00:00:12;;;;;;;384.83;162.48;;;;;;;20.81;53.78;99488.00;5054790;28;20086;-70
2022/07/09 00:02:39;;;;;;;83.80;30.48;;;;;;;20.79;53.98;99493.25;5072776;28;20056;-71
2022/07/09 00:05:07;;;;;;;23.92;8.02;;;;;;;20.70;54.00;99487.19;5072908;28;20044;-72
2022/07/09 00:07:42;;;;;;;12.30;5.00;;;;;;;20.62;54.65;99494.84;5072585;28;20504;-70
2022/07/09 00:10:10;;;;;;;10.82;4.55;;;;;;;20.62;54.44;99479.88;5072711;28;20052;-70
2022/07/09 00:12:38;;;;;;;10.07;4.13;;;;;;;20.62;54.61;99485.53;5072832;28;20135;-71
2022/07/09 00:15:05;;;;;;;11.73;4.40;;;;;;;20.60;54.94;99488.78;5072362;28;20055;-71
2022/07/09 00:17:33;;;;;;;12.70;4.55;;;;;;;20.54;55.24;99489.59;5072417;28;20468;-71
2022/07/09 00:20:02;;;;;;;12.05;4.28;;;;;;;20.53;55.28;99493.59;5072681;28;20519;-72
2022/07/09 00:22:29;;;;;;;9.98;4.07;;;;;;;20.53;55.36;99482.28;5072444;28;20052;-69
2022/07/09 00:24:56;;;;;;;10.05;4.43;;;;;;;20.53;55.38;99493.59;5072613;28;20496;-69
2022/07/09 00:27:23;;;;;;;17.02;4.63;;;;;;;20.50;55.68;99489.56;5072349;28;20053;-67
2022/07/09 00:29:50;;;;;;;11.70;4.63;;;;;;;20.47;55.73;99493.19;5072555;28;20079;-69
2022/07/09 00:32:18;;;;;;;7.53;4.15;;;;;;;20.45;55.95;99489.13;5072569;28;20102;-68
2022/07/09 00:34:45;;;;;;;8.02;4.63;;;;;;;20.46;56.16;99485.13;5072244;28;20495;-69
2022/07/09 00:37:12;;;;;;;7.85;4.05;;;;;;;20.47;56.18;99489.53;5054738;28;20091;-69
2022/07/09 00:39:39;;;;;;;8.00;3.83;;;;;;;20.45;56.15;99483.47;5072146;28;20419;-69
2022/07/09 00:42:08;;;;;;;9.50;4.40;;;;;;;20.44;56.46;99487.53;5054583;28;20052;-69
2022/07/09 00:44:36;;;;;;;10.70;4.35;;;;;;;20.41;56.27;99489.13;5072293;28;20046;-70
2022/07/09 00:47:06;;;;;;;12.57;4.38;;;;;;;20.38;56.58;99483.47;5072404;28;20049;-68
2022/07/09 00:49:38;;;;;;;85.28;39.13;;;;;;;20.35;56.30;99481.44;5072213;28;20110;-68
2022/07/09 00:52:09;;;;;;;34.90;14.13;;;;;;;20.33;56.79;99481.00;5072018;28;20135;-69
2022/07/09 00:54:37;;;;;;;11.60;5.00;;;;;;;20.30;56.89;99484.63;5054275;28;20528;-68
2022/07/09 00:57:06;;;;;;;8.40;4.43;;;;;;;20.30;56.83;99481.81;5072633;28;20063;-69
2022/07/09 00:59:35;;;;;;;15.52;4.85;;;;;;;20.26;56.94;99481.00;5072027;28;20048;-70
2022/07/09 01:02:03;;;;;;;8.05;3.85;;;;;;;20.24;56.99;99491.88;5072261;28;20048;-68
2022/07/09 01:04:32;;;;;;;8.75;4.60;;;;;;;20.22;56.87;99483.03;5053845;28;20068;-69
2022/07/09 01:07:02;;;;;;;14.53;4.63;;;;;;;20.22;56.84;99485.84;5072081;28;20094;-69
2022/07/09 01:09:29;;;;;;;13.48;4.53;;;;;;;20.18;56.78;99485.00;5071996;28;20297;-69
2022/07/09 01:11:57;;;;;;;10.20;4.25;;;;;;;20.17;56.85;99492.69;5072504;28;20411;-70
2022/07/09 01:14:24;;;;;;;11.05;4.25;;;;;;;20.17;56.83;99486.22;5054392;28;20052;-69
2022/07/09 01:16:59;;;;;;;8.38;4.68;;;;;;;20.20;56.74;99493.91;5054271;28;20060;-71
2022/07/09 01:19:31;;;;;;;11.95;4.50;;;;;;;20.19;56.88;99486.63;5072066;28;20052;-69
2022/07/09 01:21:58;;;;;;;12.88;4.47;;;;;;;20.17;56.88;99491.88;5054778;28;20075;-69
2022/07/09 01:24:32;;;;;;;9.02;4.35;;;;;;;20.16;57.04;99487.44;5075315;28;20146;-68
2022/07/09 01:27:02;;;;;;;10.52;5.00;;;;;;;20.18;56.99;99497.13;5041550;28;20143;-69
2022/07/09 01:29:29;;;;;;;9.60;4.57;;;;;;;20.12;57.12;99483.75;5075491;28;20511;-68
2022/07/09 01:31:56;;;;;;;10.43;4.70;;;;;;;20.11;57.28;99491.44;5075577;28;20127;-69
2022/07/09 01:34:23;;;;;;;8.05;4.25;;;;;;;20.12;57.51;99489.38;5075156;28;20052;-68
2022/07/09 01:36:50;;;;;;;14.45;4.25;;;;;;;20.12;57.68;99489.38;5075714;28;20048;-67
2022/07/09 01:39:17;;;;;;;8.98;4.03;;;;;;;20.12;57.49;99483.75;5075177;28;20052;-66
2022/07/09 01:41:44;;;;;;;9.07;4.60;;;;;;;20.15;57.66;99494.28;5075241;28;20052;-65
2022/07/09 01:44:10;;;;;;;8.75;4.15;;;;;;;20.15;57.73;99478.16;5075078;28;20054;-66
2022/07/09 01:46:37;;;;;;;6.45;4.28;;;;;;;20.17;57.86;99469.28;5075485;28;20043;-71
2022/07/09 01:49:04;;;;;;;8.55;3.80;;;;;;;20.16;57.77;99476.94;5074939;28;20473;-70
2022/07/09 01:51:34;;;;;;;16.55;4.60;;;;;;;20.20;57.89;99480.59;5057592;28;20079;-71
2022/07/09 01:54:02;;;;;;;;;;;;;;;20.08;58.25;99482.94;5075417;28;20055;-71
2022/07/09 01:56:28;;;;;;;8.32;3.70;;;;;;;20.13;57.80;99479.75;5075084;28;20311;-71
2022/07/09 01:58:55;;;;;;;13.55;4.43;;;;;;;20.17;58.11;99475.75;5075042;28;20053;-71
2022/07/09 02:01:22;;;;;;;14.23;4.70;;;;;;;20.19;57.84;99481.78;5075406;28;20053;-71
2022/07/09 02:03:49;;;;;;;11.23;4.60;;;;;;;20.23;57.95;99481.81;5074799;28;20092;-70
2022/07/09 02:06:16;;;;;;;10.90;4.72;;;;;;;20.25;58.26;99487.88;5057492;28;20048;-70
2022/07/09 02:08:44;;;;;;;13.43;5.15;;;;;;;20.24;58.30;99480.59;5074929;28;20567;-70
2022/07/09 02:11:11;;;;;;;9.23;4.70;;;;;;;20.21;58.44;99478.56;5075225;28;20094;-70
2022/07/09 02:13:38;;;;;;;15.20;4.45;;;;;;;20.23;58.52;99481.81;5056590;28;20048;-70
2022/07/09 02:16:25;;;;;;;9.02;4.68;;;;;;;20.26;58.43;99483.84;5060008;28;20079;-72
2022/07/09 02:18:52;;;;;;;8.73;4.40;;;;;;;20.28;58.49;99475.78;5074608;28;20055;-70
2022/07/09 02:21:19;;;;;;;12.52;4.78;;;;;;;20.30;58.61;99485.47;5074728;28;20514;-71
2022/07/09 02:23:46;;;;;;;8.50;4.72;;;;;;;20.34;58.75;99491.13;5074375;28;20044;-72
2022/07/09 02:26:13;;;;;;;6.28;3.92;;;;;;;20.37;58.69;99487.50;5074723;28;20054;-71
2022/07/09 02:28:41;;;;;;;11.23;4.40;;;;;;;20.40;58.75;99483.88;5056629;28;20098;-72
2022/07/09 02:31:08;;;;;;;9.63;4.45;;;;;;;20.43;58.59;99483.88;5074763;28;20040;-69
2022/07/09 02:33:35;;;;;;;13.77;5.00;;;;;;;20.49;58.84;99495.63;5072827;28;20422;-69
2022/07/09 02:36:02;;;;;;;11.57;5.90;;;;;;;20.51;58.63;99508.13;5056326;28;20055;-70
2022/07/09 02:38:29;;;;;;;8.18;4.35;;;;;;;20.56;58.12;99498.44;5074388;28;20059;-69
2022/07/09 02:40:56;;;;;;;11.05;5.60;;;;;;;20.65;58.04;99499.69;5074048;28;20052;-70
2022/07/09 02:43:23;;;;;;;15.63;4.90;;;;;;;20.69;58.24;99496.88;5074264;28;20040;-68
2022/07/09 02:45:51;;;;;;;13.27;4.80;;;;;;;20.61;58.37;99507.38;5073990;28;20510;-68
2022/07/09 02:48:18;;;;;;;13.05;4.90;;;;;;;20.66;58.53;99511.81;5074100;28;20048;-69
2022/07/09 02:50:45;;;;;;;10.43;5.32;;;;;;;20.68;58.47;99513.03;5074230;28;20091;-69
2022/07/09 02:53:12;;;;;;;9.25;4.88;;;;;;;20.68;58.69;99507.38;5073966;28;20055;-68
2022/07/09 02:55:38;;;;;;;12.60;5.32;;;;;;;20.68;58.53;99500.91;5073938;28;20040;-67
2022/07/09 02:58:05;;;;;;;8.55;4.97;;;;;;;20.68;58.76;99498.88;5073885;28;20044;-68
2022/07/09 03:00:32;;;;;;;13.20;5.13;;;;;;;20.71;58.82;99500.91;5074089;28;20470;-67
2022/07/09 03:02:59;;;;;;;16.45;4.95;;;;;;;20.72;58.76;99502.53;5073773;28;20055;-67
2022/07/09 03:05:26;;;;;;;8.63;4.55;;;;;;;20.72;58.75;99510.22;5074361;28;20059;-68
2022/07/09 03:07:53;;;;;;;13.18;5.50;;;;;;;20.68;58.50;99512.19;5073519;28;20151;-68
2022/07/09 03:10:20;;;;;;;15.07;5.78;;;;;;;20.73;58.54;99526.78;5073723;28;20058;-68
2022/07/09 03:12:47;;;;;;;11.55;5.47;;;;;;;20.80;58.05;99521.13;5073473;28;20051;-67
2022/07/09 03:15:16;;;;;;;25.02;7.28;;;;;;;20.99;57.54;99517.94;5073597;28;20037;-67
2022/07/09 03:17:44;;;;;;;16.05;8.13;;;;;;;21.17;56.60;99515.94;5073236;28;20106;-67
2022/07/09 03:20:12;;;;;;;17.65;5.97;;;;;;;21.34;56.10;99505.81;5054015;28;20123;-67
2022/07/09 03:22:40;;;;;;;12.43;6.13;;;;;;;21.38;56.22;99484.78;5053850;28;20096;-68
2022/07/09 03:25:07;;;;;;;11.15;6.55;;;;;;;21.45;55.87;99489.63;5053370;28;20492;-68
2022/07/09 03:27:35;;;;;;;12.05;7.18;;;;;;;21.47;55.28;99492.88;5053424;28;20081;-68
2022/07/09 03:30:04;;;;;;;17.60;7.75;;;;;;;21.46;55.09;99503.38;5053345;28;20076;-67
2022/07/09 03:32:31;;;;;;;15.23;8.37;;;;;;;21.44;54.55;99508.63;5053352;28;20056;-67
2022/07/09 03:35:00;;;;;;;19.35;8.25;;;;;;;21.41;54.25;99503.00;5053144;28;20049;-67
2022/07/09 03:37:29;;;;;;;19.42;8.45;;;;;;;21.43;53.88;99497.72;5054112;28;20069;-67
2022/07/09 03:39:56;;;;;;;13.00;7.88;;;;;;;21.48;53.81;99478.31;5053221;28;20532;-67
2022/07/09 03:42:23;;;;;;;16.92;7.95;;;;;;;21.53;53.20;99458.06;5053122;28;20504;-66
2022/07/09 03:44:49;;;;;;;13.93;7.90;;;;;;;21.65;52.94;99442.69;5052638;28;20049;-67
2022/07/09 03:47:16;;;;;;;16.25;9.15;;;;;;;21.78;52.64;99434.56;5053090;28;20049;-67
2022/07/09 03:49:43;;;;;;;21.08;10.10;;;;;;;21.69;52.87;99430.13;5054767;28;20106;-67
2022/07/09 03:52:10;;;;;;;20.98;9.80;;;;;;;21.61;53.34;99433.38;5073046;28;20048;-67
2022/07/09 03:54:49;;;;;;;20.83;8.02;;;;;;;21.65;53.38;99443.47;5072724;28;20144;-68
2022/07/09 03:57:15;;;;;;;18.02;7.45;;;;;;;21.76;53.99;99462.50;5072729;28;20095;-67
2022/07/09 03:59:42;;;;;;;22.67;8.25;;;;;;;21.84;53.82;99467.75;5054556;28;20067;-67
2022/07/09 04:02:09;;;;;;;14.13;9.02;;;;;;;21.90;54.13;99468.16;5072927;28;20060;-66
2022/07/09 04:04:40;;;;;;;19.00;7.95;;;;;;;22.07;54.22;99481.41;5073079;28;20091;-68
2022/07/09 04:07:07;;;;;;;14.25;7.45;;;;;;;22.18;53.52;99483.00;5072906;28;20071;-66
2022/07/09 04:09:34;;;;;;;16.42;8.27;;;;;;;22.22;53.32;99475.28;5072636;28;20055;-68
2022/07/09 04:12:01;;;;;;;23.33;7.80;;;;;;;22.30;53.15;99467.56;5072721;28;20052;-66
2022/07/09 04:14:28;;;;;;;20.50;7.00;;;;;;;22.37;52.74;99471.16;5072386;28;20052;-67
2022/07/09 04:16:55;;;;;;;16.27;7.30;;;;;;;22.48;52.41;99477.59;5072343;28;20530;-66
2022/07/09 04:19:22;;;;;;;18.95;8.02;;;;;;;22.61;51.96;99472.25;5072448;28;20044;-67
2022/07/09 04:21:49;;;;;;;13.32;7.82;;;;;;;22.70;51.14;99481.91;5072750;28;20063;-67
2022/07/09 04:24:16;;;;;;;16.58;7.75;;;;;;;22.81;50.73;99485.50;5072589;28;20044;-67
2022/07/09 04:26:43;;;;;;;15.65;7.20;;;;;;;22.89;49.81;99487.03;5072656;28;20485;-68
2022/07/09 04:29:10;;;;;;;18.15;7.80;;;;;;;22.98;49.38;99493.06;5072786;28;20056;-67
2022/07/09 04:31:37;;;;;;;13.07;6.40;;;;;;;23.10;48.79;99489.75;5072603;28;20087;-67
2022/07/09 04:34:04;;;;;;;10.82;6.53;;;;;;;23.18;48.29;99499.78;5072559;28;20537;-68
2022/07/09 04:36:31;;;;;;;16.60;6.55;;;;;;;23.25;48.11;99490.47;5072464;28;20043;-67
2022/07/09 04:38:58;;;;;;;17.25;7.35;;;;;;;23.44;47.63;99497.59;5072362;28;20139;-67
2022/07/09 04:41:25;;;;;;;16.23;6.82;;;;;;;23.56;47.19;99494.22;5072641;28;20516;-67
2022/07/09 04:43:52;;;;;;;16.10;7.40;;;;;;;23.68;46.84;99485.97;5072362;28;20143;-67
2022/07/09 04:46:21;;;;;;;14.13;7.13;;;;;;;23.70;46.73;99482.72;5072418;28;20076;-68
2022/07/09 04:48:48;;;;;;;11.38;6.53;;;;;;;23.76;47.14;99472.50;5072351;28;20380;-68
2022/07/09 04:51:15;;;;;;;10.50;6.45;;;;;;;23.94;46.79;99471.06;5072380;28;20139;-68
2022/07/09 04:53:42;;;;;;;12.20;5.35;;;;;;;24.05;45.92;99465.28;5072574;28;20503;-68
2022/07/09 04:56:09;;;;;;;12.73;5.82;;;;;;;24.18;45.76;99472.03;5054146;28;20566;-68
2022/07/09 04:58:37;;;;;;;19.15;7.47;;;;;;;24.29;45.73;99475.53;5075443;28;20048;-68
2022/07/09 05:01:04;;;;;;;20.25;4.97;;;;;;;24.45;45.14;99472.91;5076129;28;20397;-67
2022/07/09 05:03:31;;;;;;;14.25;4.93;;;;;;;24.57;44.24;99470.28;5075728;28;20102;-68
2022/07/09 05:05:58;;;;;;;13.40;5.55;;;;;;;24.74;43.82;99462.75;5075846;28;20044;-67
2022/07/09 05:08:25;;;;;;;12.32;4.15;;;;;;;24.86;43.81;99465.81;5075856;28;20052;-67
2022/07/09 05:10:52;;;;;;;8.13;2.58;;;;;;;24.91;42.17;99470.19;5076041;28;20060;-67
2022/07/09 05:13:21;;;;;;;4.75;2.83;;;;;;;24.80;41.49;99455.31;5076061;28;20139;-67
2022/07/09 05:15:48;;;;;;;4.82;2.60;;;;;;;24.98;41.32;99450.97;5076170;28;20037;-67
2022/07/09 05:18:15;;;;;;;7.97;2.85;;;;;;;25.20;41.24;99457.13;5075382;28;20506;-71
2022/07/09 05:20:42;;;;;;;7.65;3.13;;;;;;;25.39;40.81;99459.25;5057706;28;20052;-72
2022/07/09 05:23:09;;;;;;;7.90;2.60;;;;;;;25.46;40.62;99452.63;5075545;28;20511;-71
2022/07/09 05:25:36;;;;;;;7.55;2.95;;;;;;;25.52;40.16;99457.38;5075739;28;20037;-71
2022/07/09 05:28:03;;;;;;;6.63;3.00;;;;;;;25.52;39.71;99463.06;5075300;28;20049;-71
2022/07/09 05:30:30;;;;;;;7.85;2.92;;;;;;;25.52;39.84;99460.22;5075896;28;20083;-70
2022/07/09 05:32:59;;;;;;;12.63;2.30;;;;;;;25.52;40.32;99463.06;5075545;28;20055;-70
2022/07/09 05:35:26;;;;;;;9.73;2.55;;;;;;;25.56;40.15;99469.53;5075522;28;20071;-70
2022/07/09 05:37:53;;;;;;;8.50;2.75;;;;;;;25.64;40.07;99459.59;5075492;28;20492;-71
2022/07/09 05:40:20;;;;;;;7.30;2.85;;;;;;;25.66;39.78;99468.50;5075389;28;20052;-70
2022/07/09 05:42:47;;;;;;;7.18;3.03;;;;;;;25.59;40.00;99459.28;5075374;28;20048;-72
2022/07/09 05:45:14;;;;;;;4.18;2.47;;;;;;;25.57;39.74;99468.28;5075255;28;20094;-70
2022/07/09 05:47:44;;;;;;;8.73;2.90;;;;;;;25.54;39.81;99466.28;5075421;28;20064;-71
2022/07/09 05:50:13;;;;;;;3.30;2.13;;;;;;;25.73;39.74;99457.00;5075334;28;20170;-70
2022/07/09 05:52:40;;;;;;;;;;;;;;;25.65;40.00;99455.50;5075758;28;20075;-71
2022/07/09 05:55:07;;;;;;;7.57;2.53;;;;;;;25.70;39.69;99463.56;5074952;28;19928;-71
2022/07/09 05:57:34;;;;;;;8.27;2.72;;;;;;;25.68;39.28;99459.53;5074815;28;20094;-71
2022/07/09 06:00:04;;;;;;;3.05;2.17;;;;;;;25.55;39.88;99458.56;5075118;28;20416;-70
2022/07/09 06:02:31;;;;;;;5.13;2.10;;;;;;;25.44;39.60;99450.22;5075095;28;20507;-72
2022/07/09 06:04:58;;;;;;;6.32;2.50;;;;;;;25.50;39.76;99451.31;5074768;28;20139;-68
2022/07/09 06:07:25;;;;;;;4.95;1.75;;;;;;;25.74;39.77;99449.22;5074873;28;20132;-69
2022/07/09 06:09:56;;;;;;;4.05;1.90;;;;;;;26.09;39.05;99443.66;5074893;28;20056;-67
2022/07/09 06:12:23;;;;;;;4.65;1.70;;;;;;;26.94;37.83;99441.75;5074866;28;20087;-67
2022/07/09 06:14:49;;;;;;;3.55;2.10;;;;;;;27.65;36.46;99424.41;5074792;28;20090;-67
2022/07/09 06:17:16;;;;;;;3.28;1.55;;;;;;;29.85;32.53;99425.13;5074491;28;20135;-67
2022/07/09 06:19:43;;;;;;;6.57;1.80;;;;;;;32.16;29.08;99425.44;5074766;28;20044;-67
2022/07/09 06:22:10;;;;;;;9.88;1.95;;;;;;;33.69;26.60;99429.00;5074369;28;20422;-68
2022/07/09 06:24:37;;;;;;;6.85;1.70;;;;;;;33.01;27.64;99428.75;5074531;28;20053;-67
2022/07/09 06:27:04;;;;;;;3.95;1.98;;;;;;;32.03;28.89;99433.41;5074530;28;20051;-67
2022/07/09 06:29:31;;;;;;;7.68;1.70;;;;;;;30.76;30.67;99425.78;5074459;28;20435;-67
2022/07/09 06:32:00;;;;;;;3.53;1.90;;;;;;;30.00;31.49;99434.00;5074493;28;20040;-67
2022/07/09 06:34:27;;;;;;;10.43;2.17;;;;;;;29.48;32.42;99428.91;5074526;28;20068;-67
2022/07/09 06:36:54;;;;;;;4.85;2.15;;;;;;;29.11;32.43;99423.25;5074111;28;20071;-67
2022/07/09 06:42:07;;;;;;;8.27;2.50;;;;;;;28.13;34.26;99421.41;5073836;28;20060;-68
2022/07/09 06:44:34;;;;;;;3.30;2.15;;;;;;;27.65;35.01;99433.78;5073976;28;20051;-68
2022/07/09 06:47:01;;;;;;;5.65;2.00;;;;;;;27.28;35.33;99428.66;5074345;28;20123;-68
2022/07/09 06:49:28;;;;;;;3.90;1.70;;;;;;;27.13;35.13;99423.72;5074381;28;20136;-68
2022/07/09 06:51:56;;;;;;;6.18;2.47;;;;;;;27.28;35.21;99427.84;5073717;28;20495;-69
2022/07/09 06:54:23;;;;;;;4.95;2.25;;;;;;;27.60;34.34;99413.53;5073928;28;20059;-69
2022/07/09 06:56:50;;;;;;;4.55;2.25;;;;;;;27.73;34.03;99417.22;5073818;28;20048;-67
2022/07/09 06:59:18;;;;;;;7.03;2.42;;;;;;;27.88;34.04;99422.13;5073860;28;20139;-67
2022/07/09 07:01:45;;;;;;;3.75;2.05;;;;;;;27.73;34.21;99426.63;5073634;28;20060;-68
2022/07/09 07:04:14;;;;;;;5.50;2.33;;;;;;;27.80;34.33;99417.81;5073741;28;20503;-69
2022/07/09 07:06:42;;;;;;;5.07;2.15;;;;;;;28.75;32.79;99403.56;5073689;28;20052;-67
2022/07/09 07:09:09;;;;;;;4.97;2.13;;;;;;;28.67;33.34;99407.91;5073299;28;20411;-71
2022/07/09 07:11:36;;;;;;;5.40;1.90;;;;;;;28.35;33.69;99408.06;5073649;28;20508;-71
2022/07/09 07:14:03;;;;;;;9.70;2.13;;;;;;;27.95;34.22;99412.56;5055699;28;20052;-71
2022/07/09 07:16:29;;;;;;;5.95;2.03;;;;;;;27.41;35.02;99420.19;5073395;28;20044;-71
2022/07/09 07:18:57;;;;;;;6.35;1.90;;;;;;;27.01;35.34;99415.88;5055798;28;20048;-70
2022/07/09 07:21:23;;;;;;;5.20;1.98;;;;;;;26.62;36.05;99411.09;5055031;28;20060;-71
2022/07/09 07:23:50;;;;;;;5.75;2.08;;;;;;;26.27;36.74;99420.47;5073615;28;20106;-71
2022/07/09 07:26:17;;;;;;;11.85;1.95;;;;;;;26.07;36.84;99433.94;5073373;28;20044;-70
2022/07/09 07:28:44;;;;;;;3.67;2.10;;;;;;;25.74;37.68;99435.78;5055360;28;20452;-71
2022/07/09 07:31:19;;;;;;;4.85;1.95;;;;;;;25.38;38.06;99434.03;5072967;28;20044;-71
2022/07/09 07:33:48;;;;;;;6.18;1.85;;;;;;;25.04;39.03;99435.00;5073504;28;20048;-72
2022/07/09 07:36:15;;;;;;;;;;;;;;;24.76;39.41;99443.19;5062554;28;20049;-70
2022/07/09 07:38:42;;;;;;;2.45;1.90;;;;;;;24.72;40.19;99442.47;5052974;28;19948;-71
2022/07/09 07:41:09;;;;;;;4.13;2.90;;;;;;;24.63;41.43;99445.00;5053194;28;20048;-72
2022/07/09 07:43:36;;;;;;;26.15;4.95;;;;;;;24.45;43.26;99450.16;5053365;28;20455;-72
2022/07/09 07:46:03;;;;;;;13.23;3.75;;;;;;;24.15;45.59;99447.28;5053097;28;20049;-72
2022/07/09 07:48:35;;;;;;;7.07;2.63;;;;;;;23.73;47.59;99440.06;5052806;28;20075;-70
2022/07/09 07:51:03;;;;;;;6.38;3.20;;;;;;;23.42;48.93;99456.22;5052760;28;20106;-72
2022/07/09 07:53:31;;;;;;;7.03;3.65;;;;;;;23.25;50.57;99462.88;5052918;28;20052;-70
2022/07/09 07:56:00;;;;;;;8.23;3.28;;;;;;;23.11;52.33;99462.97;5054991;28;20048;-71
2022/07/09 07:58:27;;;;;;;9.32;3.78;;;;;;;22.94;52.99;99463.91;5072706;28;20076;-67
2022/07/09 08:00:54;;;;;;;10.65;4.20;;;;;;;22.76;54.25;99480.25;5072969;28;20127;-67
2022/07/09 08:03:21;;;;;;;7.03;4.00;;;;;;;22.68;55.48;99472.22;5055046;28;20051;-68
2022/07/09 08:05:55;;;;;;;10.57;4.18;;;;;;;22.71;55.60;99477.84;5072671;28;20071;-68
2022/07/09 08:08:22;;;;;;;7.80;4.57;;;;;;;22.80;56.02;99485.91;5086190;28;20066;-67
2022/07/09 08:10:49;;;;;;;10.35;5.30;;;;;;;22.94;55.95;99480.94;5093049;28;20055;-67
2022/07/09 08:13:16;;;;;;;8.32;4.00;;;;;;;23.05;56.21;99481.66;5092821;28;20062;-67
2022/07/09 08:15:44;;;;;;;12.20;5.57;;;;;;;23.03;56.75;99478.44;5092554;28;20131;-66
2022/07/09 08:18:14;;;;;;;10.63;4.57;;;;;;;23.00;57.19;99469.94;5093242;28;20154;-66
2022/07/09 08:20:42;;;;;;;8.23;4.88;;;;;;;23.09;57.67;99475.94;5092918;28;20052;-70
2022/07/09 08:23:10;;;;;;;10.50;4.70;;;;;;;23.23;57.88;99476.66;5092723;28;20039;-71
2022/07/09 08:25:37;;;;;;;7.57;4.53;;;;;;;23.31;57.83;99478.25;5092798;28;20052;-71
2022/07/09 08:28:05;;;;;;;6.53;4.20;;;;;;;23.34;57.82;99480.25;5092878;28;20054;-70
2022/07/09 08:30:32;;;;;;;7.72;4.68;;;;;;;23.34;57.50;99482.25;5092788;28;20515;-71
2022/07/09 08:32:58;;;;;;;7.38;4.10;;;;;;;23.34;57.41;99477.41;5096953;28;20537;-70
2022/07/09 08:35:26;;;;;;;7.78;4.75;;;;;;;23.28;57.47;99472.59;5097002;28;20066;-69
2022/07/09 08:37:53;;;;;;;22.70;9.50;;;;;;;23.19;57.60;99473.03;5097118;28;20046;-70
2022/07/09 08:40:21;;;;;;;6.40;4.13;;;;;;;23.11;58.00;99471.47;5096937;28;20546;-71
2022/07/09 08:42:53;;;;;;;6.57;4.05;;;;;;;23.01;58.22;99469.53;5097098;28;20074;-70
2022/07/09 08:45:21;;;;;;;8.48;4.45;;;;;;;22.93;58.33;99467.97;5092929;28;20477;-70
2022/07/09 08:47:48;;;;;;;11.13;4.07;;;;;;;22.86;58.32;99465.19;5076403;28;20447;-70
2022/07/09 08:50:15;;;;;;;8.18;4.07;;;;;;;22.85;58.22;99462.75;5076228;28;20055;-70
2022/07/09 08:52:42;;;;;;;9.48;4.00;;;;;;;22.89;58.12;99472.06;5076212;28;20087;-70
2022/07/09 08:55:10;;;;;;;6.70;3.92;;;;;;;22.88;58.04;99468.41;5075988;28;20508;-71
2022/07/09 08:57:38;;;;;;;8.38;4.00;;;;;;;22.87;57.75;99475.31;5076130;28;20045;-72
2022/07/09 09:00:07;;;;;;;37.30;15.38;;;;;;;22.93;57.97;99467.97;5058224;28;20060;-70
2022/07/09 09:02:40;;;;;;;17.90;8.93;;;;;;;23.06;57.58;99469.09;5074886;28;20075;-71
2022/07/09 09:05:15;;;;;;;8.68;4.47;;;;;;;23.15;57.21;99469.41;5057935;28;20060;-71
2022/07/09 09:07:42;;;;;;;8.73;4.30;;;;;;;23.12;55.30;99461.72;5084061;28;20048;-71
2022/07/09 09:10:30;;;;;;;11.77;3.95;;;;;;;23.16;55.01;99448.34;5096269;28;20048;-68
2022/07/09 09:12:57;;;;;;;8.18;4.20;;;;;;;23.19;55.28;99435.34;5096426;28;20052;-67
2022/07/09 09:15:25;;;;;;;6.90;3.42;;;;;;;23.31;55.13;99444.19;5096465;28;20407;-67
2022/07/09 09:17:53;;;;;;;6.18;4.10;;;;;;;23.29;54.89;99442.97;5095752;28;20063;-67
2022/07/09 09:20:20;;;;;;;9.35;4.20;;;;;;;23.20;55.30;99432.06;5096171;28;20048;-67
2022/07/09 09:22:50;;;;;;;6.90;3.58;;;;;;;23.21;54.76;99433.69;5096114;28;20503;-67
2022/07/09 09:25:21;;;;;;;5.75;3.13;;;;;;;23.25;54.44;99422.31;5095851;28;20051;-68
2022/07/09 09:27:55;;;;;;;7.03;4.03;;;;;;;23.34;54.17;99426.31;5095940;28;20047;-67
2022/07/09 09:30:23;;;;;;;9.07;3.05;;;;;;;23.47;54.33;99418.03;5077542;28;20415;-68
2022/07/09 09:33:03;;;;;;;6.13;3.67;;;;;;;23.82;53.65;99416.81;5077732;28;20052;-68
2022/07/09 09:35:34;;;;;;;7.28;2.83;;;;;;;24.18;53.12;99413.13;5068228;28;20123;-69
2022/07/09 09:38:01;;;;;;;9.32;3.80;;;;;;;24.27;53.62;99416.25;5075722;28;20045;-67
2022/07/09 09:40:28;;;;;;;5.85;3.55;;;;;;;24.28;54.04;99408.53;5066113;28;20061;-68
2022/07/09 09:42:58;;;;;;;5.32;2.85;;;;;;;24.28;52.74;99411.38;5054679;28;20048;-67
2022/07/09 09:45:26;;;;;;;4.70;2.95;;;;;;;24.25;51.69;99398.03;5072548;28;20437;-70
2022/07/09 09:47:53;;;;;;;8.00;3.10;;;;;;;24.27;51.90;99398.38;5075310;28;20048;-69
2022/07/09 09:50:24;;;;;;;7.53;3.30;;;;;;;24.38;51.50;99385.63;5057144;28;20465;-69
2022/07/09 09:52:54;;;;;;;13.93;3.60;;;;;;;24.39;51.50;99383.63;5075202;28;20503;-72
2022/07/09 09:55:22;;;;;;;5.70;3.35;;;;;;;24.32;52.24;99389.38;5075564;28;20136;-70
2022/07/09 09:57:51;;;;;;;7.18;3.10;;;;;;;24.28;52.27;99382.97;5074834;28;20437;-70
2022/07/09 10:00:18;;;;;;;4.97;3.20;;;;;;;24.38;52.73;99382.81;5075231;28;20143;-69
2022/07/09 10:02:47;;;;;;;5.90;3.35;;;;;;;24.57;52.14;99381.31;5075120;28;20106;-70
2022/07/09 10:05:14;;;;;;;7.70;3.65;;;;;;;24.77;51.79;99383.03;5074971;28;20071;-69
2022/07/09 10:07:42;;;;;;;17.05;6.43;;;;;;;24.89;50.67;99368.19;5074621;28;20051;-69
2022/07/09 10:10:17;;;;;;;9.40;5.38;;;;;;;24.94;49.99;99370.53;5074699;28;20066;-70
2022/07/09 10:12:44;;;;;;;9.57;4.20;;;;;;;25.06;49.98;99360.56;5057170;28;20052;-69
2022/07/09 10:15:33;;;;;;;5.95;3.78;;;;;;;25.05;50.89;99359.75;5074538;28;20087;-68
2022/07/09 10:18:10;;;;;;;6.22;3.53;;;;;;;24.94;50.75;99364.03;5074384;28;20052;-68
2022/07/09 10:20:37;;;;;;;6.03;3.78;;;;;;;24.74;49.60;99371.69;5074849;28;20136;-68
2022/07/09 10:23:04;;;;;;;11.40;3.50;;;;;;;24.46;48.80;99372.13;5074684;28;20054;-67
2022/07/09 10:25:45;;;;;;;9.77;3.47;;;;;;;24.37;47.83;99369.00;5074559;28;20056;-68
2022/07/09 10:28:19;;;;;;;6.53;3.60;;;;;;;24.33;48.03;99352.00;5074572;28;20572;-67
2022/07/09 10:30:47;;;;;;;9.63;4.05;;;;;;;24.41;47.62;99358.38;5057815;28;20072;-70
2022/07/09 10:33:22;;;;;;;7.57;3.97;;;;;;;24.59;46.76;99348.34;5041243;28;20045;-70
2022/07/09 10:35:54;;;;;;;6.25;4.55;;;;;;;24.75;46.21;99344.88;5057073;28;20397;-70
2022/07/09 10:38:22;;;;;;;10.60;4.32;;;;;;;24.91;46.49;99342.13;5039736;28;20040;-70
2022/07/09 10:40:57;;;;;;;8.35;4.78;;;;;;;25.28;45.14;99341.03;5073852;28;20052;-70
2022/07/09 10:43:44;;;;;;;6.63;4.90;;;;;;;25.30;44.98;99333.66;5074198;28;20098;-71
2022/07/09 10:46:12;;;;;;;14.38;5.18;;;;;;;25.24;45.18;99332.56;5074463;28;20082;-68
2022/07/09 10:48:39;;;;;;;12.18;5.22;;;;;;;25.30;45.32;99330.00;5073912;28;20420;-67
2022/07/09 10:51:07;;;;;;;6.72;5.03;;;;;;;25.46;45.09;99316.69;5074355;28;20095;-67
2022/07/09 10:53:33;;;;;;;12.63;5.50;;;;;;;25.31;45.03;99318.19;5056357;28;20055;-67
2022/07/09 10:56:00;;;;;;;13.85;5.63;;;;;;;25.05;45.57;99302.03;5073020;28;20052;-68
2022/07/09 10:58:29;;;;;;;14.15;5.22;;;;;;;24.84;46.26;99296.72;5073929;28;20438;-68
2022/07/09 11:00:58;;;;;;;;;;;;;;;24.44;46.54;99297.78;5074745;28;20086;-66
2022/07/09 11:03:27;;;;;;;10.88;5.40;;;;;;;24.24;47.16;99297.72;5073913;28;19924;-67
2022/07/09 11:05:54;;;;;;;19.70;5.60;;;;;;;24.21;47.40;99292.06;5074064;28;20415;-67
2022/07/09 11:08:21;;;;;;;14.40;5.80;;;;;;;24.30;47.49;99286.63;5055523;28;20048;-67
2022/07/09 11:10:48;;;;;;;16.60;6.65;;;;;;;24.34;47.53;99278.88;5073944;28;20047;-67
2022/07/09 11:13:17;;;;;;;10.77;5.93;;;;;;;24.38;47.39;99279.63;5055334;28;20044;-67
2022/07/09 11:15:44;;;;;;;14.30;4.65;;;;;;;24.42;46.27;99275.47;5074264;28;20055;-67
2022/07/09 11:18:15;;;;;;;14.98;3.70;;;;;;;24.57;45.07;99276.06;5073197;28;20060;-67
2022/07/09 11:20:44;;;;;;;8.70;4.75;;;;;;;24.68;44.08;99266.13;5073534;28;20052;-67
2022/07/09 11:23:14;;;;;;;7.38;3.38;;;;;;;24.88;43.03;99263.31;5038865;28;20048;-69
2022/07/09 11:25:42;;;;;;;5.00;2.95;;;;;;;25.09;42.49;99251.50;5055428;28;20051;-67
2022/07/09 11:28:19;;;;;;;10.07;2.92;;;;;;;25.20;41.24;99248.44;5073112;28;20075;-68
2022/07/09 11:30:58;;;;;;;8.30;3.63;;;;;;;25.25;41.09;99250.78;5055183;28;20127;-67
2022/07/09 11:33:25;;;;;;;3.70;2.40;;;;;;;25.01;40.17;99247.19;5073321;28;20066;-68
2022/07/09 11:35:52;;;;;;;5.03;2.42;;;;;;;24.60;40.96;99238.22;5055842;28;20052;-67